createdAt,value
2018-08-09T00:01:07.156Z,20.47
2018-08-09T00:03:39.163Z,20.47
2018-08-09T00:06:11.188Z,20.36
2018-08-09T00:08:43.196Z,20.43
2018-08-09T00:11:15.201Z,20.36
2018-08-09T00:16:38.295Z,20.34
2018-08-09T00:19:10.344Z,20.29
2018-08-09T00:21:42.378Z,20.27
2018-08-09T00:24:14.479Z,20.25
2018-08-09T00:26:46.508Z,20.25
2018-08-09T00:29:18.510Z,20.14
2018-08-09T00:31:50.522Z,20.03
2018-08-09T00:34:22.557Z,19.99
2018-08-09T00:36:54.591Z,20.01
2018-08-09T00:39:26.597Z,20.05
2018-08-09T00:41:58.622Z,20.02
2018-08-09T00:44:30.655Z,19.91
2018-08-09T00:47:02.715Z,19.91
2018-08-09T00:49:34.773Z,19.88
2018-08-09T00:52:06.780Z,19.81
2018-08-09T00:54:38.787Z,19.73
2018-08-09T00:57:10.810Z,19.71
2018-08-09T00:59:42.793Z,19.80
2018-08-09T01:02:14.796Z,19.82
2018-08-09T01:04:46.824Z,19.91
2018-08-09T01:07:18.845Z,19.92
2018-08-09T01:10:54.146Z,19.90
2018-08-09T01:13:26.144Z,19.80
2018-08-09T01:15:58.122Z,19.74
2018-08-09T01:18:30.102Z,19.72
2018-08-09T01:21:02.104Z,19.54
2018-08-09T01:23:34.078Z,19.55
2018-08-09T01:26:06.111Z,19.45
2018-08-09T01:28:38.167Z,19.43
2018-08-09T01:31:10.214Z,19.51
2018-08-09T01:33:42.174Z,19.42
2018-08-09T01:36:14.155Z,19.28
2018-08-09T01:38:46.196Z,19.16
2018-08-09T01:41:18.187Z,19.23
2018-08-09T01:44:00.099Z,19.18
2018-08-09T01:46:32.259Z,19.17
2018-08-09T01:49:04.286Z,19.16
2018-08-09T01:51:36.263Z,19.08
2018-08-09T01:54:08.253Z,19.02
2018-08-09T01:56:40.262Z,18.93
2018-08-09T01:59:12.263Z,19.05
2018-08-09T02:01:44.258Z,19.13
2018-08-09T02:04:16.238Z,19.14
2018-08-09T02:06:48.245Z,19.19
2018-08-09T02:09:25.890Z,19.05
2018-08-09T02:11:57.907Z,18.79
2018-08-09T02:14:29.947Z,19.12
2018-08-09T02:17:01.933Z,19.11
2018-08-09T02:19:33.974Z,19.17
2018-08-09T02:22:05.998Z,19.22
2018-08-09T02:24:38.007Z,19.36
2018-08-09T02:27:10.011Z,19.34
2018-08-09T02:29:42.096Z,19.34
2018-08-09T02:32:14.140Z,19.34
2018-08-09T02:34:46.147Z,19.17
2018-08-09T02:37:18.151Z,19.05
2018-08-09T02:39:50.144Z,18.97
2018-08-09T02:42:28.773Z,18.89
2018-08-09T02:45:00.783Z,18.93
2018-08-09T02:47:32.802Z,18.85
2018-08-09T02:50:04.858Z,18.95
2018-08-09T02:52:36.880Z,19.10
2018-08-09T02:55:08.910Z,19.12
2018-08-09T02:57:41.001Z,19.06
2018-08-09T03:00:13.056Z,19.06
2018-08-09T03:02:45.060Z,19.11
2018-08-09T03:05:17.088Z,19.08
2018-08-09T03:07:49.303Z,19.00
2018-08-09T03:10:21.392Z,18.91
2018-08-09T03:12:53.433Z,18.92
2018-08-09T03:15:25.470Z,18.90
2018-08-09T03:17:57.591Z,18.82
2018-08-09T03:20:29.610Z,18.85
2018-08-09T03:23:01.598Z,18.81
2018-08-09T03:25:33.609Z,18.77
2018-08-09T03:28:05.606Z,18.83
2018-08-09T03:30:37.623Z,18.80
2018-08-09T03:33:09.578Z,18.72
2018-08-09T03:35:41.560Z,18.72
2018-08-09T03:38:13.552Z,18.64
2018-08-09T03:40:45.563Z,18.63
2018-08-09T03:43:17.555Z,18.56
2018-08-09T03:45:49.559Z,18.54
2018-08-09T03:48:21.538Z,18.53
2018-08-09T03:50:53.578Z,18.59
2018-08-09T03:53:25.572Z,18.56
2018-08-09T03:55:57.562Z,18.54
2018-08-09T03:58:29.576Z,18.62
2018-08-09T04:01:01.594Z,18.52
2018-08-09T04:03:33.562Z,18.54
2018-08-09T04:06:05.580Z,18.60
2018-08-09T04:08:37.754Z,18.57
2018-08-09T04:11:09.727Z,18.47
2018-08-09T04:13:41.702Z,18.64
2018-08-09T04:16:13.767Z,18.71
2018-08-09T04:18:46.117Z,18.78
2018-08-09T04:21:18.134Z,18.87
2018-08-09T04:23:50.130Z,18.97
2018-08-09T04:26:22.171Z,19.00
2018-08-09T04:28:54.114Z,19.11
2018-08-09T04:31:26.110Z,19.19
2018-08-09T04:33:58.087Z,19.27
2018-08-09T04:36:30.055Z,19.33
2018-08-09T04:39:02.204Z,19.41
2018-08-09T04:41:34.236Z,19.44
2018-08-09T04:44:06.318Z,19.54
2018-08-09T04:46:38.310Z,19.67
2018-08-09T04:49:10.284Z,19.70
2018-08-09T04:51:42.328Z,19.78
2018-08-09T04:54:14.311Z,19.90
2018-08-09T04:56:46.298Z,19.94
2018-08-09T04:59:18.287Z,19.99
2018-08-09T05:01:50.325Z,20.06
2018-08-09T05:04:22.503Z,20.16
2018-08-09T05:06:54.654Z,20.33
2018-08-09T05:09:26.661Z,20.66
2018-08-09T05:11:58.711Z,21.27
2018-08-09T05:14:30.699Z,21.83
2018-08-09T05:18:27.278Z,22.60
2018-08-09T05:20:59.313Z,23.85
2018-08-09T05:23:31.319Z,23.73
2018-08-09T05:26:03.314Z,23.10
2018-08-09T05:28:35.322Z,22.84
2018-08-09T05:31:07.351Z,23.13
2018-08-09T05:33:39.649Z,24.05
2018-08-09T05:36:11.784Z,25.14
2018-08-09T05:38:43.791Z,25.57
2018-08-09T05:41:15.790Z,26.13
2018-08-09T05:43:47.770Z,26.52
2018-08-09T05:46:19.774Z,27.04
2018-08-09T05:48:51.790Z,27.85
2018-08-09T05:51:23.863Z,27.92
2018-08-09T05:53:55.863Z,28.66
2018-08-09T05:56:27.868Z,29.29
2018-08-09T05:58:59.860Z,29.18
2018-08-09T06:01:31.900Z,29.42
2018-08-09T06:04:03.890Z,29.75
2018-08-09T06:06:35.942Z,29.86
2018-08-09T06:09:09.275Z,30.22
2018-08-09T06:11:42.032Z,30.76
2018-08-09T06:14:14.286Z,30.39
2018-08-09T06:16:46.291Z,30.48
2018-08-09T06:19:18.325Z,31.12
2018-08-09T06:21:50.336Z,30.46
2018-08-09T06:24:22.347Z,31.04
2018-08-09T06:26:54.359Z,30.75
2018-08-09T06:29:26.386Z,30.91
2018-08-09T06:31:58.445Z,31.84
2018-08-09T06:34:30.477Z,32.50
2018-08-09T06:37:02.516Z,32.98
2018-08-09T06:39:34.509Z,33.00
2018-08-09T06:42:06.537Z,32.44
2018-08-09T06:44:38.516Z,32.25
2018-08-09T06:47:17.193Z,32.66
2018-08-09T06:49:49.198Z,34.74
2018-08-09T06:52:21.223Z,33.65
2018-08-09T06:54:53.268Z,33.43
2018-08-09T06:57:25.331Z,33.79
2018-08-09T06:59:57.355Z,33.47
2018-08-09T07:02:29.383Z,33.61
2018-08-09T07:05:01.727Z,33.86
2018-08-09T07:07:33.811Z,33.90
2018-08-09T07:10:06.403Z,33.62
2018-08-09T07:12:38.520Z,34.38
2018-08-09T07:15:12.063Z,34.10
2018-08-09T07:17:44.039Z,34.71
2018-08-09T07:20:16.153Z,34.49
2018-08-09T07:22:48.166Z,32.99
2018-08-09T07:25:20.143Z,33.70
2018-08-09T07:27:52.158Z,33.83
2018-08-09T07:30:24.177Z,34.42
2018-08-09T07:32:56.187Z,35.31
2018-08-09T07:35:28.261Z,35.44
2018-08-09T07:38:00.351Z,35.32
2018-08-09T07:40:32.355Z,35.15
2018-08-09T07:43:04.476Z,35.05
2018-08-09T07:45:36.495Z,34.63
2018-08-09T07:48:08.556Z,35.03
2018-08-09T07:50:40.684Z,35.25
2018-08-09T07:53:12.780Z,34.31
2018-08-09T07:55:44.798Z,35.55
2018-08-09T07:58:16.805Z,36.00
2018-08-09T08:00:48.849Z,35.68
2018-08-09T08:03:20.930Z,36.04
2018-08-09T08:05:53.093Z,35.38
2018-08-09T08:08:25.016Z,35.47
2018-08-09T08:10:57.095Z,35.28
2018-08-09T08:13:29.148Z,35.38
2018-08-09T08:16:01.263Z,35.81
2018-08-09T08:18:33.411Z,35.91
2018-08-09T08:21:05.515Z,35.39
2018-08-09T08:23:37.537Z,35.66
2018-08-09T08:26:09.565Z,35.23
2018-08-09T08:28:41.654Z,34.48
2018-08-09T08:31:13.742Z,34.45
2018-08-09T08:33:45.787Z,35.88
2018-08-09T08:36:17.801Z,36.19
2018-08-09T08:38:49.920Z,35.50
2018-08-09T08:41:22.008Z,35.18
2018-08-09T08:43:54.007Z,34.42
2018-08-09T08:46:26.070Z,35.15
2018-08-09T08:48:58.178Z,34.90
2018-08-09T08:51:30.185Z,35.13
2018-08-09T08:54:02.268Z,35.00
2018-08-09T08:56:34.252Z,34.85
2018-08-09T08:59:06.297Z,35.66
2018-08-09T09:01:38.310Z,36.01
2018-08-09T09:04:10.374Z,36.07
2018-08-09T09:06:49.210Z,36.68
2018-08-09T09:09:21.222Z,36.80
2018-08-09T09:11:53.256Z,36.78
2018-08-09T09:14:25.319Z,36.19
2018-08-09T09:16:57.335Z,35.93
2018-08-09T09:19:29.483Z,36.23
2018-08-09T09:22:01.462Z,36.50
2018-08-09T09:24:33.683Z,34.92
2018-08-09T09:27:05.771Z,33.73
2018-08-09T09:29:37.707Z,33.83
2018-08-09T09:32:09.838Z,33.80
2018-08-09T09:34:41.899Z,34.98
2018-08-09T09:37:13.936Z,35.49
2018-08-09T09:39:45.950Z,35.84
2018-08-09T09:42:17.954Z,36.77
2018-08-09T09:44:49.943Z,36.55
2018-08-09T09:47:21.991Z,36.12
2018-08-09T09:49:53.993Z,36.45
2018-08-09T09:52:25.967Z,36.43
2018-08-09T09:54:58.193Z,36.41
2018-08-09T09:57:30.249Z,36.28
2018-08-09T10:00:02.345Z,36.14
2018-08-09T10:02:34.344Z,35.48
2018-08-09T10:05:06.355Z,36.59
2018-08-09T10:07:38.676Z,36.07
2018-08-09T10:10:11.552Z,36.90
2018-08-09T10:12:43.619Z,36.67
2018-08-09T10:15:15.620Z,36.06
2018-08-09T10:17:47.626Z,35.98
2018-08-09T10:20:19.749Z,35.91
2018-08-09T10:22:51.738Z,36.86
2018-08-09T10:25:23.782Z,36.51
2018-08-09T10:27:55.823Z,36.62
2018-08-09T10:30:27.918Z,36.81
2018-08-09T10:33:00.312Z,36.04
2018-08-09T10:35:32.438Z,33.84
2018-08-09T10:38:04.436Z,34.46
2018-08-09T10:40:36.466Z,35.59
2018-08-09T10:43:08.554Z,35.04
2018-08-09T10:45:40.547Z,35.27
2018-08-09T10:48:12.614Z,36.34
2018-08-09T10:50:44.668Z,36.78
2018-08-09T10:53:16.732Z,36.94
2018-08-09T10:55:48.752Z,36.56
2018-08-09T10:58:20.775Z,36.60
2018-08-09T11:00:52.844Z,36.71
2018-08-09T11:03:24.842Z,36.55
2018-08-09T11:05:56.856Z,36.00
2018-08-09T11:08:29.138Z,35.59
2018-08-09T11:11:06.758Z,36.30
2018-08-09T11:13:40.543Z,36.16
2018-08-09T11:16:13.526Z,36.88
2018-08-09T11:18:45.603Z,36.86
2018-08-09T11:21:17.642Z,36.68
2018-08-09T11:23:49.684Z,36.38
2018-08-09T11:26:21.695Z,37.54
2018-08-09T11:28:53.712Z,37.72
2018-08-09T11:31:25.923Z,38.04
2018-08-09T11:33:58.062Z,38.29
2018-08-09T11:36:30.156Z,37.50
2018-08-09T11:39:02.343Z,37.36
2018-08-09T11:48:42.498Z,38.00
2018-08-09T11:51:14.569Z,38.05
2018-08-09T11:53:46.632Z,37.76
2018-08-09T11:56:18.779Z,36.83
2018-08-09T11:58:50.794Z,36.62
2018-08-09T12:01:22.884Z,37.22
2018-08-09T12:03:54.944Z,37.72
2018-08-09T12:06:29.003Z,38.33
2018-08-09T12:09:05.163Z,37.83
2018-08-09T12:11:37.872Z,37.21
2018-08-09T12:14:09.910Z,37.21
2018-08-09T12:16:41.896Z,37.67
2018-08-09T12:19:13.991Z,38.29
2018-08-09T12:21:46.039Z,38.96
2018-08-09T12:24:18.146Z,39.39
2018-08-09T12:26:50.166Z,39.42
2018-08-09T12:29:22.236Z,39.36
2018-08-09T12:31:54.355Z,39.60
2018-08-09T12:34:26.395Z,39.90
2018-08-09T12:36:58.531Z,40.33
2018-08-09T12:39:30.614Z,41.19
2018-08-09T12:42:02.780Z,41.22
2018-08-09T12:44:34.886Z,39.68
2018-08-09T12:47:07.072Z,39.98
2018-08-09T12:49:39.161Z,39.78
2018-08-09T12:52:11.196Z,41.18
2018-08-09T12:54:43.253Z,41.86
2018-08-09T12:57:15.384Z,42.36
2018-08-09T12:59:47.525Z,42.71
2018-08-09T13:02:19.605Z,41.28
2018-08-09T13:04:51.643Z,40.54
2018-08-09T13:07:23.693Z,41.63
2018-08-09T13:09:55.714Z,41.55
2018-08-09T13:12:27.872Z,42.02
2018-08-09T13:14:59.954Z,41.90
2018-08-09T13:17:32.008Z,40.69
2018-08-09T13:20:04.814Z,39.67
2018-08-09T13:22:36.836Z,41.60
2018-08-09T13:25:08.945Z,42.15
2018-08-09T13:27:40.977Z,42.95
2018-08-09T13:30:13.437Z,42.43
2018-08-09T13:32:45.448Z,42.19
2018-08-09T13:35:17.472Z,41.15
2018-08-09T13:37:49.506Z,41.55
2018-08-09T13:40:21.579Z,41.82
2018-08-09T13:42:53.640Z,42.86
2018-08-09T13:45:25.695Z,42.72
2018-08-09T13:47:57.779Z,42.82
2018-08-09T13:50:29.803Z,42.57
2018-08-09T13:53:01.859Z,43.16
2018-08-09T13:55:33.915Z,44.23
2018-08-09T13:58:06.039Z,43.15
2018-08-09T14:00:38.107Z,41.49
2018-08-09T14:03:10.201Z,41.85
2018-08-09T14:05:42.230Z,42.55
2018-08-09T14:08:14.314Z,40.61
2018-08-09T14:10:46.338Z,42.80
2018-08-09T14:13:18.373Z,43.84
2018-08-09T14:15:50.411Z,43.09
2018-08-09T14:18:22.449Z,43.59
2018-08-09T14:20:54.471Z,44.09
2018-08-09T14:23:26.551Z,43.28
2018-08-09T14:25:58.576Z,43.88
2018-08-09T14:28:30.599Z,42.00
2018-08-09T14:31:02.700Z,39.19
2018-08-09T14:33:34.730Z,37.85
2018-08-09T14:36:13.631Z,39.78
2018-08-09T14:38:45.789Z,41.94
2018-08-09T14:41:17.795Z,43.60
2018-08-09T14:43:49.927Z,44.20
2018-08-09T14:46:22.026Z,43.09
2018-08-09T14:48:54.107Z,44.17
2018-08-09T14:51:26.146Z,43.03
2018-08-09T14:53:58.461Z,44.43
2018-08-09T14:56:30.512Z,42.64
2018-08-09T14:59:02.559Z,42.84
2018-08-09T15:01:34.641Z,41.35
2018-08-09T15:04:06.761Z,40.62
2018-08-09T15:06:38.887Z,41.41
2018-08-09T15:09:11.879Z,40.70
2018-08-09T15:11:43.947Z,40.65
2018-08-09T15:14:16.105Z,39.77
2018-08-09T15:16:48.130Z,40.72
2018-08-09T15:19:20.175Z,40.82
2018-08-09T15:21:52.239Z,40.57
2018-08-09T15:24:24.280Z,41.09
2018-08-09T15:26:56.274Z,41.59
2018-08-09T15:29:28.378Z,42.10
2018-08-09T15:32:00.412Z,41.75
2018-08-09T15:34:32.420Z,42.27
2018-08-09T15:37:04.808Z,41.72
2018-08-09T15:39:36.855Z,40.72
2018-08-09T15:42:08.911Z,39.34
2018-08-09T15:44:40.934Z,39.76
2018-08-09T15:47:13.142Z,41.03
2018-08-09T15:49:45.072Z,41.77
2018-08-09T15:52:17.062Z,41.40
2018-08-09T15:54:49.103Z,41.28
2018-08-09T15:57:21.135Z,41.53
2018-08-09T15:59:53.181Z,40.93
2018-08-09T16:02:25.298Z,41.83
2018-08-09T16:04:57.294Z,40.67
2018-08-09T16:07:29.354Z,39.64
2018-08-09T16:10:01.428Z,40.31
2018-08-09T16:12:33.455Z,40.38
2018-08-09T16:15:08.731Z,40.09
2018-08-09T16:17:41.088Z,38.83
2018-08-09T16:20:13.130Z,38.65
2018-08-09T16:22:45.827Z,37.92
2018-08-09T16:25:18.581Z,38.11
2018-08-09T16:27:50.622Z,38.07
2018-08-09T16:30:23.927Z,38.23
2018-08-09T16:32:55.963Z,38.00
2018-08-09T16:35:28.003Z,37.49
2018-08-09T16:38:00.043Z,37.25
2018-08-09T16:40:32.108Z,37.26
2018-08-09T16:43:04.143Z,36.52
2018-08-09T16:45:36.187Z,36.33
2018-08-09T16:48:08.186Z,36.22
2018-08-09T16:51:43.575Z,35.93
2018-08-09T16:54:15.648Z,35.75
2018-08-09T16:56:47.715Z,35.60
2018-08-09T16:59:19.773Z,35.50
2018-08-09T17:01:51.907Z,35.26
2018-08-09T17:04:23.963Z,34.94
2018-08-09T17:06:56.135Z,34.51
2018-08-09T17:09:28.246Z,34.38
2018-08-09T17:12:00.591Z,34.55
2018-08-09T17:14:32.719Z,34.28
2018-08-09T17:17:05.301Z,34.22
2018-08-09T17:19:37.867Z,34.28
2018-08-09T17:22:10.182Z,34.27
2018-08-09T17:24:42.259Z,34.25
2018-08-09T17:27:14.386Z,34.24
2018-08-09T17:29:46.654Z,33.39
2018-08-09T17:32:18.775Z,32.81
2018-08-09T17:34:50.899Z,32.06
2018-08-09T17:37:23.472Z,31.59
2018-08-09T17:39:55.792Z,31.47
2018-08-09T17:42:29.068Z,31.06
2018-08-09T17:45:01.192Z,30.72
2018-08-09T17:47:33.392Z,30.66
2018-08-09T17:50:06.088Z,30.27
2018-08-09T17:52:38.271Z,29.88
2018-08-09T17:55:12.189Z,29.53
2018-08-09T17:57:45.036Z,29.32
2018-08-09T18:00:26.975Z,29.14
2018-08-09T18:02:59.115Z,28.85
2018-08-09T18:05:31.238Z,28.73
2018-08-09T18:08:03.675Z,28.70
2018-08-09T18:10:36.095Z,28.62
2018-08-09T18:13:08.349Z,28.35
2018-08-09T18:15:40.462Z,28.33
2018-08-09T18:18:12.579Z,28.24
2018-08-09T18:20:44.804Z,28.14
2018-08-09T18:23:17.023Z,27.95
2018-08-09T18:25:49.292Z,27.76
2018-08-09T18:28:21.588Z,27.65
2018-08-09T18:30:53.648Z,27.57
2018-08-09T18:33:25.745Z,27.49
2018-08-09T18:35:57.834Z,27.45
2018-08-09T18:38:29.967Z,27.31
2018-08-09T18:41:02.162Z,27.26
2018-08-09T18:43:34.388Z,27.16
2018-08-09T18:46:06.850Z,27.07
2018-08-09T18:48:38.954Z,26.95
2018-08-09T18:51:11.099Z,26.89
2018-08-09T18:53:43.219Z,26.74
2018-08-09T18:56:15.485Z,26.62
2018-08-09T18:58:47.649Z,26.46
2018-08-09T19:01:19.700Z,26.50
2018-08-09T19:03:51.792Z,26.57
2018-08-09T19:06:24.051Z,26.58
2018-08-09T19:08:56.160Z,26.49
2018-08-09T19:11:28.353Z,26.62
2018-08-09T19:14:00.476Z,26.51
2018-08-09T19:16:32.692Z,26.47
2018-08-09T19:19:04.713Z,26.39
2018-08-09T19:21:36.966Z,26.24
2018-08-09T19:24:09.110Z,26.13
2018-08-09T19:26:41.300Z,26.14
2018-08-09T19:29:13.478Z,26.18
2018-08-09T19:31:45.780Z,26.21
2018-08-09T19:34:17.838Z,26.16
2018-08-09T19:36:49.954Z,26.00
2018-08-09T19:39:22.252Z,25.92
2018-08-09T19:41:54.431Z,25.86
2018-08-09T19:44:26.553Z,25.86
2018-08-09T19:46:58.660Z,25.88
2018-08-09T19:49:30.743Z,25.84
2018-08-09T19:52:02.959Z,25.91
2018-08-09T19:54:35.068Z,25.87
2018-08-09T19:57:07.546Z,25.85
2018-08-09T19:59:39.752Z,25.84
2018-08-09T20:02:11.869Z,25.80
2018-08-09T20:04:44.016Z,25.80
2018-08-09T20:07:16.210Z,25.75
2018-08-09T20:09:48.490Z,25.77
2018-08-09T20:12:20.600Z,25.68
2018-08-09T20:14:52.742Z,25.63
2018-08-09T20:17:24.987Z,25.61
2018-08-09T20:19:58.898Z,25.53
2018-08-09T20:22:31.026Z,25.41
2018-08-09T20:25:03.671Z,25.32
2018-08-09T20:27:35.911Z,25.24
2018-08-09T20:30:09.572Z,25.20
2018-08-09T20:32:42.235Z,25.08
2018-08-09T20:35:16.747Z,24.94
2018-08-09T20:37:49.490Z,24.98
2018-08-09T20:40:22.706Z,25.02
2018-08-09T20:42:54.851Z,24.86
2018-08-09T20:45:26.971Z,24.79
2018-08-09T20:47:59.386Z,24.80
2018-08-09T20:50:31.460Z,24.70
2018-08-09T20:53:03.532Z,24.61
2018-08-09T20:55:35.774Z,24.49
2018-08-09T20:58:07.903Z,24.49
2018-08-09T21:00:39.961Z,24.50
2018-08-09T21:03:12.071Z,24.45
2018-08-09T21:05:44.096Z,24.35
2018-08-09T21:08:16.180Z,24.28
2018-08-09T21:10:48.211Z,24.30
2018-08-09T21:13:21.331Z,24.36
2018-08-09T21:15:53.358Z,24.38
2018-08-09T21:18:25.410Z,24.34
2018-08-09T21:20:57.428Z,24.26
2018-08-09T21:23:29.434Z,24.31
2018-08-09T21:26:01.493Z,24.20
2018-08-09T21:28:33.567Z,24.29
2018-08-09T21:31:05.571Z,24.28
2018-08-09T21:33:37.700Z,24.31
2018-08-09T21:36:09.688Z,24.35
2018-08-09T21:38:41.727Z,24.32
2018-08-09T21:41:13.744Z,24.29
2018-08-09T21:43:45.774Z,24.34
2018-08-09T21:46:17.794Z,24.28
2018-08-09T21:48:49.794Z,24.25
2018-08-09T21:51:21.815Z,24.26
2018-08-09T21:53:53.854Z,24.28
2018-08-09T21:56:25.911Z,24.23
2018-08-09T21:58:57.922Z,24.19
2018-08-09T22:01:29.943Z,24.14
2018-08-09T22:04:01.969Z,24.11
2018-08-09T22:06:39.574Z,24.12
2018-08-09T22:09:17.173Z,24.06
2018-08-09T22:11:54.834Z,23.89
2018-08-09T22:14:32.488Z,23.80
2018-08-09T22:17:10.356Z,23.69
2018-08-09T22:19:47.996Z,23.52
2018-08-09T22:22:22.594Z,23.37
2018-08-09T22:24:54.611Z,23.33
2018-08-09T22:27:26.682Z,23.44
2018-08-09T22:29:58.690Z,23.55
2018-08-09T22:32:30.743Z,23.61
2018-08-09T22:35:03.608Z,23.69
2018-08-09T22:37:35.666Z,23.76
2018-08-09T22:40:07.843Z,23.77
2018-08-09T22:42:39.891Z,23.74
2018-08-09T22:45:11.924Z,23.72
2018-08-09T22:47:43.953Z,23.71
2018-08-09T22:50:15.978Z,23.69
2018-08-09T22:52:48.053Z,23.54
2018-08-09T22:55:20.078Z,23.43
2018-08-09T22:57:52.088Z,23.29
2018-08-09T23:00:24.135Z,22.97
2018-08-09T23:03:02.835Z,22.55
2018-08-09T23:05:35.002Z,22.12
2018-08-09T23:08:08.963Z,21.88
2018-08-09T23:10:41.778Z,21.73
2018-08-09T23:13:14.636Z,21.69
2018-08-09T23:15:46.672Z,21.55
2018-08-09T23:18:18.695Z,21.49
2018-08-09T23:20:50.707Z,21.46
2018-08-09T23:23:22.719Z,21.36
2018-08-09T23:25:54.715Z,21.34
2018-08-09T23:28:27.400Z,21.22
2018-08-09T23:30:59.388Z,21.29
2018-08-09T23:33:31.357Z,21.30
2018-08-09T23:36:03.390Z,21.29
2018-08-09T23:38:35.401Z,21.43
2018-08-09T23:41:07.390Z,21.49
2018-08-09T23:43:39.379Z,21.43
2018-08-09T23:46:11.431Z,21.47
2018-08-09T23:48:43.454Z,21.51
2018-08-09T23:51:15.408Z,21.50
2018-08-09T23:53:47.420Z,21.49
2018-08-09T23:56:19.424Z,21.51
2018-08-09T23:58:51.519Z,21.50
